Country
Station

 

Weather  for  La Serena  -  Chile    Chile

  
10 °C (50 °F)
    
 
 

Current METAR for La Serena is :

SCSE 021211Z 00000KT 0500 FG VV000 10/09 Q1019

 

This is a report for La Serena - Chile.
 
The report was made 47 minutes ago, at 12:11 UTC .
The wind was calm.
 
The temperature was 10 °C (50 °F), with a dew-point at 9 °C (48 °F).
The atmospheric pressure was 1019 hPa (30.09 inHg).
The relative humidity was 93.5%.
 
There were a vertical visibility of 30 meter (100 feet).
 
The overall visibility was 500 meter (1640 feet).
 
Currently fog.

 
 
 
 

Country :   A   B   C   D   E   F   G   H   I   J   K   L   M   N   O   P   Q   R   S   T   U   V   W   Y   Z

 

Site Info  |  Disclaimer  |  Credits  |  Privacy
Contact us  |  Add to favorites
© 2013-2020 METARs - All rights reserved